Time;durP1;ratioP1;P1;durP2;ratioP2;P2;SDS_P1;SDS_P2;PMS_P1;PMS_P2;Temp;Humidity;BMP_temperature;BMP_pressure;BME280_temperature;BME280_humidity;BME280_pressure;Samples;Min_cycle;Max_cycle;Signal;HPM_P1;HPM_P2
2023/04/12 00:00:11;;;;;;;;;;;12.30;99.90;12.70;99124.00;;;;335050;29;95073;-93
2023/04/12 00:00:23;;;;;;;;;;;12.30;99.90;12.60;99119.00;;;;332363;29;91965;-93
2023/04/12 00:00:35;;;;;;;;;;;12.30;99.90;12.70;99120.00;;;;333738;29;95985;-93
2023/04/12 00:00:49;;;;;;;;;;;12.30;99.90;12.70;99113.00;;;;332320;29;91156;-92
2023/04/12 00:01:01;;;;;;;;;;;12.30;99.90;12.70;99121.00;;;;333835;29;95796;-92
2023/04/12 00:01:13;;;;;;;;;;;12.30;99.90;12.70;99121.00;;;;333635;29;91209;-92
2023/04/12 00:01:25;;;;;;;;;;;12.30;99.90;12.60;99117.00;;;;333926;29;94853;-93
2023/04/12 00:01:37;;;;;;;;;;;12.30;99.90;12.60;99119.00;;;;334820;29;92204;-92
2023/04/12 00:01:48;;;;;;;;;;;12.30;99.90;12.70;99118.00;;;;334018;29;97149;-92
2023/04/12 00:02:00;;;;;;;;;;;12.30;99.90;12.70;99122.00;;;;335131;29;91935;-93
2023/04/12 00:02:13;;;;;;;;;;;12.30;99.90;12.70;99116.00;;;;333981;29;95921;-93
2023/04/12 00:02:26;;;;;;;;;;;12.30;99.90;12.80;99119.00;;;;332594;29;92089;-92
2023/04/12 00:02:38;;;;;;;;;;;12.30;99.90;12.80;99121.00;;;;335268;29;95713;-92
2023/04/12 00:02:52;;;;;;;;;;;12.30;99.90;12.80;99130.00;;;;332459;29;92031;-93
2023/04/12 00:03:06;;;;;;;;;;;12.30;99.90;12.80;99114.00;;;;334026;29;95791;-93
2023/04/12 00:03:19;;;;;;;;;;;12.30;99.90;12.80;99109.00;;;;333614;29;92108;-93
2023/04/12 00:03:32;;;;;;;;;;;12.30;99.90;12.90;99116.00;;;;335291;29;94918;-93
2023/04/12 00:03:49;;;;;;;;;;;12.30;99.90;12.90;99124.00;;;;334948;29;92972;-93
2023/04/12 00:04:04;;;;;;;;;;;12.30;99.90;12.70;99107.00;;;;332717;29;96997;-93
2023/04/12 00:04:16;;;;;;;;;;;12.30;99.90;12.60;99110.00;;;;334832;29;92146;-92
2023/04/12 00:04:29;;;;;;;;;;;12.30;99.90;12.60;99115.00;;;;335229;29;95959;-92
2023/04/12 00:04:41;;;;;;;;;;;12.30;99.90;12.70;99112.00;;;;333776;29;91298;-92
2023/04/12 00:04:56;;;;;;;;;;;12.30;99.90;12.80;99112.00;;;;335278;29;96139;-92
2023/04/12 00:05:10;;;;;;;;;;;12.30;99.90;12.90;99110.00;;;;333824;29;92069;-92
2023/04/12 00:05:26;;;;;;;;;;;12.30;99.90;12.90;99112.00;;;;335355;29;94768;-93
2023/04/12 00:05:38;;;;;;;;;;;12.30;99.90;12.80;99115.00;;;;334925;29;92728;-92
2023/04/12 00:05:53;;;;;;;;;;;12.30;99.90;12.80;99106.00;;;;335326;29;95380;-92
2023/04/12 00:06:06;;;;;;;;;;;12.30;99.90;12.60;99107.00;;;;333766;29;92918;-92
2023/04/12 00:06:19;;;;;;;;;;;12.30;99.90;12.70;99120.00;;;;331453;29;95602;-92
2023/04/12 00:06:31;;;;;;;;;;;12.30;99.90;12.70;99111.00;;;;333621;29;92054;-93
2023/04/12 00:06:47;;;;;;;;;;;12.30;99.90;12.70;99114.00;;;;335269;29;96093;-92
2023/04/12 00:06:59;;;;;;;;;;;12.30;99.90;12.60;99106.00;;;;331177;29;92074;-92
2023/04/12 00:07:11;;;;;;;;;;;12.30;99.90;12.60;99113.00;;;;335244;29;94663;-93
2023/04/12 00:07:23;;;;;;;;;;;12.30;99.90;12.50;99118.00;;;;335143;29;91992;-92
2023/04/12 00:07:37;;;;;;;;;;;12.30;99.90;12.60;99118.00;;;;335171;28;95668;-92
2023/04/12 00:07:52;;;;;;;;;;;12.30;99.90;12.70;99117.00;;;;331217;29;92202;-92
2023/04/12 00:08:05;;;;;;;;;;;12.30;99.90;12.60;99113.00;;;;331520;29;95111;-92
2023/04/12 00:08:16;;;;;;;;;;;12.30;99.90;12.60;99119.00;;;;335077;29;93091;-92
2023/04/12 00:08:34;;;;;;;;;;;12.30;99.90;12.60;99122.00;;;;332757;29;94373;-92
2023/04/12 00:08:46;;;;;;;;;;;12.30;99.90;12.60;99114.00;;;;333582;29;92120;-92
2023/04/12 00:09:01;;;;;;;;;;;12.30;99.90;12.60;99114.00;;;;332634;29;95070;-93
2023/04/12 00:09:15;;;;;;;;;;;12.30;99.90;12.80;99117.00;;;;332496;29;92021;-93
2023/04/12 00:09:30;;;;;;;;;;;12.30;99.90;12.80;99109.00;;;;335261;29;95933;-93
2023/04/12 00:09:42;;;;;;;;;;;12.30;99.90;12.90;99107.00;;;;335092;28;91298;-92
2023/04/12 00:09:53;;;;;;;;;;;12.30;99.90;12.90;99104.00;;;;335380;29;95616;-92
2023/04/12 00:10:06;;;;;;;;;;;12.30;99.90;12.80;99110.00;;;;333822;29;91972;-92
2023/04/12 00:10:18;;;;;;;;;;;12.30;99.90;12.80;99113.00;;;;333919;29;94632;-93
2023/04/12 00:10:30;;;;;;;;;;;12.30;99.90;12.80;99102.00;;;;332452;29;92890;-93
2023/04/12 00:10:42;;;;;;;;;;;12.30;99.90;12.80;99099.00;;;;335354;29;95629;-92
2023/04/12 00:10:54;;;;;;;;;;;12.30;99.90;12.70;99105.00;;;;334997;29;91993;-92
2023/04/12 00:11:07;;;;;;;;;;;12.30;99.90;12.60;99096.00;;;;334136;29;94688;-92
2023/04/12 00:11:18;;;;;;;;;;;12.30;99.90;12.70;99112.00;;;;331276;29;92134;-92
2023/04/12 00:11:30;;;;;;;;;;;12.30;99.90;12.60;99109.00;;;;334003;29;96067;-92
2023/04/12 00:11:42;;;;;;;;;;;12.30;99.90;12.60;99100.00;;;;335020;29;92054;-93
2023/04/12 00:11:55;;;;;;;;;;;12.30;99.90;12.70;99110.00;;;;334094;29;94718;-92
2023/04/12 00:12:07;;;;;;;;;;;12.30;99.90;12.70;99107.00;;;;333796;29;91960;-92
2023/04/12 00:12:19;;;;;;;;;;;12.30;99.90;12.80;99103.00;;;;335307;29;96306;-92
2023/04/12 00:12:31;;;;;;;;;;;12.30;99.90;12.80;99111.00;;;;333783;29;92111;-92
2023/04/12 00:12:43;;;;;;;;;;;12.30;99.90;12.80;99104.00;;;;335246;29;96959;-93
2023/04/12 00:12:55;;;;;;;;;;;12.30;99.90;12.80;99100.00;;;;332516;29;91197;-92
2023/04/12 00:13:07;;;;;;;;;;;12.30;99.90;12.80;99103.00;;;;333876;29;95049;-92
2023/04/12 00:13:19;;;;;;;;;;;12.30;99.90;12.80;99102.00;;;;333797;29;92110;-92
2023/04/12 00:13:30;;;;;;;;;;;12.30;99.90;12.80;99100.00;;;;331311;29;95072;-93
2023/04/12 00:13:42;;;;;;;;;;;12.30;99.90;12.90;99098.00;;;;333564;29;92137;-92
2023/04/12 00:13:54;;;;;;;;;;;12.30;99.90;12.80;99097.00;;;;334057;29;92321;-92
2023/04/12 00:14:06;;;;;;;;;;;12.30;99.90;12.80;99092.00;;;;332528;29;92106;-92
2023/04/12 00:14:18;;;;;;;;;;;12.30;99.90;12.80;99097.00;;;;332667;29;95121;-92
2023/04/12 00:14:31;;;;;;;;;;;12.30;99.90;12.80;99099.00;;;;332501;29;92920;-93
2023/04/12 00:14:43;;;;;;;;;;;12.30;99.90;12.90;99098.00;;;;332924;29;97033;-92
2023/04/12 00:14:54;;;;;;;;;;;12.30;99.90;12.80;99090.00;;;;332925;29;91116;-92
2023/04/12 00:15:08;;;;;;;;;;;12.30;99.90;12.80;99088.00;;;;334499;29;96038;-92
2023/04/12 00:15:20;;;;;;;;;;;12.30;99.90;12.90;99088.00;;;;331696;29;92143;-92
2023/04/12 00:15:32;;;;;;;;;;;12.30;99.90;12.90;99091.00;;;;334516;29;95390;-92
2023/04/12 00:15:44;;;;;;;;;;;12.30;99.90;13.00;99089.00;;;;334237;29;92104;-92
2023/04/12 00:15:56;;;;;;;;;;;12.30;99.90;13.00;99089.00;;;;333185;29;96378;-92
2023/04/12 00:16:08;;;;;;;;;;;12.40;99.90;12.80;99090.00;;;;332865;29;92043;-92
2023/04/12 00:16:20;;;;;;;;;;;12.30;99.90;12.80;99091.00;;;;335716;29;95749;-92
2023/04/12 00:16:32;;;;;;;;;;;12.40;99.90;12.90;99089.00;;;;334035;29;92120;-93
2023/04/12 00:16:45;;;;;;;;;;;12.40;99.90;12.90;99083.00;;;;334259;29;96958;-93
2023/04/12 00:16:57;;;;;;;;;;;12.40;99.90;12.90;99094.00;;;;332715;29;91190;-93
2023/04/12 00:17:08;;;;;;;;;;;12.40;99.90;12.90;99092.00;;;;334344;29;95108;-92
2023/04/12 00:17:20;;;;;;;;;;;12.40;99.90;12.90;99092.00;;;;333942;29;91223;-93
2023/04/12 00:17:32;;;;;;;;;;;12.40;99.90;12.80;99089.00;;;;334121;29;96330;-93
2023/04/12 00:17:45;;;;;;;;;;;12.40;99.90;12.80;99096.00;;;;332426;29;91255;-93
2023/04/12 00:17:57;;;;;;;;;;;12.40;99.90;12.70;99091.00;;;;332755;29;94765;-92
2023/04/12 00:18:09;;;;;;;;;;;12.40;99.90;12.80;99094.00;;;;332521;29;92083;-93
2023/04/12 00:18:24;;;;;;;;;;;12.40;99.90;12.90;99089.00;;;;335312;29;95744;-92
2023/04/12 00:18:36;;;;;;;;;;;12.40;99.90;12.90;99088.00;;;;333603;29;93083;-93
2023/04/12 00:18:50;;;;;;;;;;;12.40;99.90;12.90;99093.00;;;;331427;29;96748;-93
2023/04/12 00:19:02;;;;;;;;;;;12.40;99.90;12.70;99083.00;;;;335081;29;91993;-92
2023/04/12 00:19:15;;;;;;;;;;;12.40;99.90;12.70;99088.00;;;;334031;29;94830;-93
2023/04/12 00:19:29;;;;;;;;;;;12.40;99.90;12.70;99094.00;;;;329920;29;92025;-93
2023/04/12 00:19:41;;;;;;;;;;;12.40;99.90;12.80;99096.00;;;;332816;29;94705;-93
2023/04/12 00:19:53;;;;;;;;;;;12.40;99.90;12.70;99081.00;;;;335072;29;91253;-93
2023/04/12 00:20:10;;;;;;;;;;;12.40;99.90;12.70;99086.00;;;;331585;29;96038;-93
2023/04/12 00:20:23;;;;;;;;;;;12.30;99.90;12.60;99088.00;;;;332460;29;92123;-93
2023/04/12 00:20:35;;;;;;;;;;;12.40;99.90;12.50;99089.00;;;;334065;29;95533;-93
2023/04/12 00:20:47;;;;;;;;;;;12.30;99.90;12.40;99093.00;;;;333762;29;93060;-93
2023/04/12 00:20:58;;;;;;;;;;;12.30;99.90;12.40;99092.00;;;;333924;29;95866;-92
2023/04/12 00:21:10;;;;;;;;;;;12.30;99.90;12.50;99086.00;;;;333790;29;91959;-93
2023/04/12 00:21:23;;;;;;;;;;;12.30;99.90;12.60;99090.00;;;;334127;29;94437;-92
2023/04/12 00:21:34;;;;;;;;;;;12.30;99.90;12.60;99090.00;;;;333756;29;91159;-92
2023/04/12 00:21:46;;;;;;;;;;;12.30;99.90;12.50;99088.00;;;;332700;29;95857;-93
2023/04/12 00:21:58;;;;;;;;;;;12.30;99.90;12.50;99091.00;;;;333744;29;92060;-93
2023/04/12 00:22:10;;;;;;;;;;;12.30;99.90;12.40;99081.00;;;;332738;29;95744;-93
2023/04/12 00:22:22;;;;;;;;;;;12.30;99.90;12.40;99086.00;;;;333737;29;91173;-92
2023/04/12 00:22:35;;;;;;;;;;;12.30;99.90;12.50;99079.00;;;;334018;29;94716;-93
2023/04/12 00:22:47;;;;;;;;;;;12.30;99.90;12.40;99078.00;;;;332443;29;92969;-92
2023/04/12 00:22:59;;;;;;;;;;;12.30;99.90;12.40;99085.00;;;;333787;29;97377;-93
2023/04/12 00:23:12;;;;;;;;;;;12.30;99.90;12.40;99093.00;;;;333778;29;91943;-92
2023/04/12 00:23:24;;;;;;;;;;;12.20;99.90;12.40;99083.00;;;;332786;29;94925;-93
2023/04/12 00:23:37;;;;;;;;;;;12.20;99.90;12.50;99071.00;;;;333816;29;91295;-92
2023/04/12 00:23:49;;;;;;;;;;;12.20;99.90;12.60;99084.00;;;;334022;29;94826;-93
2023/04/12 00:24:00;;;;;;;;;;;12.20;99.90;12.60;99085.00;;;;335149;29;91164;-93
2023/04/12 00:24:12;;;;;;;;;;;12.20;99.90;12.60;99084.00;;;;332671;29;95698;-92
2023/04/12 00:24:24;;;;;;;;;;;12.20;99.90;12.70;99086.00;;;;333738;29;92046;-93
2023/04/12 00:24:37;;;;;;;;;;;12.20;99.90;12.60;99086.00;;;;334049;29;94887;-92
2023/04/12 00:24:49;;;;;;;;;;;12.20;99.90;12.70;99087.00;;;;332462;29;92940;-92
2023/04/12 00:25:01;;;;;;;;;;;12.20;99.90;12.60;99081.00;;;;334020;29;96166;-93
2023/04/12 00:25:13;;;;;;;;;;;12.20;99.90;12.60;99080.00;;;;333833;29;91927;-92
2023/04/12 00:25:25;;;;;;;;;;;12.30;99.90;12.60;99080.00;;;;332779;29;94851;-93
2023/04/12 00:25:38;;;;;;;;;;;12.30;99.90;12.60;99076.00;;;;335034;28;92049;-92
2023/04/12 00:25:50;;;;;;;;;;;12.20;99.90;12.70;99079.00;;;;332677;29;95979;-93
2023/04/12 00:26:01;;;;;;;;;;;12.20;99.90;12.60;99080.00;;;;332509;29;91902;-93
2023/04/12 00:26:13;;;;;;;;;;;12.30;99.90;12.70;99082.00;;;;333994;29;95675;-93
2023/04/12 00:26:25;;;;;;;;;;;12.20;99.90;12.60;99078.00;;;;332448;29;91978;-93
2023/04/12 00:26:37;;;;;;;;;;;12.20;99.90;12.50;99078.00;;;;333997;29;94787;-92
2023/04/12 00:26:49;;;;;;;;;;;12.20;99.90;12.40;99080.00;;;;333786;29;92910;-93
2023/04/12 00:27:01;;;;;;;;;;;12.20;99.90;12.50;99074.00;;;;334004;29;95561;-93
2023/04/12 00:27:13;;;;;;;;;;;12.20;99.90;12.70;99076.00;;;;332493;29;91117;-92
2023/04/12 00:27:25;;;;;;;;;;;12.20;99.90;12.60;99078.00;;;;332679;29;95703;-93
2023/04/12 00:27:37;;;;;;;;;;;12.30;99.90;12.50;99082.00;;;;333728;29;92136;-92
2023/04/12 00:27:48;;;;;;;;;;;12.20;99.90;12.50;99085.00;;;;332718;29;95883;-93
2023/04/12 00:28:00;;;;;;;;;;;12.20;99.90;12.50;99074.00;;;;333782;29;92104;-93
2023/04/12 00:28:13;;;;;;;;;;;12.20;99.90;12.50;99082.00;;;;333856;29;93564;-92
2023/04/12 00:28:25;;;;;;;;;;;12.20;99.90;12.50;99077.00;;;;332380;29;92093;-93
2023/04/12 00:28:36;;;;;;;;;;;12.20;99.90;12.50;99075.00;;;;333984;29;95839;-93
2023/04/12 00:28:48;;;;;;;;;;;12.20;99.90;12.60;99064.00;;;;335047;29;92989;-92
2023/04/12 00:29:00;;;;;;;;;;;12.20;99.90;12.60;99072.00;;;;332741;29;93812;-93
2023/04/12 00:29:12;;;;;;;;;;;12.20;99.90;12.50;99076.00;;;;333768;29;91999;-93
2023/04/12 00:29:25;;;;;;;;;;;12.20;99.90;12.60;99073.00;;;;334059;29;94598;-93
2023/04/12 00:29:37;;;;;;;;;;;12.20;99.90;12.50;99069.00;;;;333564;29;92165;-93
2023/04/12 00:29:49;;;;;;;;;;;12.20;99.90;12.50;99070.00;;;;334016;29;95932;-93
2023/04/12 00:30:02;;;;;;;;;;;12.20;99.90;12.50;99072.00;;;;333785;29;92174;-93
2023/04/12 00:30:14;;;;;;;;;;;12.20;99.90;12.40;99067.00;;;;335170;29;95232;-93
2023/04/12 00:30:26;;;;;;;;;;;12.20;99.90;12.40;99064.00;;;;333770;29;92124;-92
2023/04/12 00:30:39;;;;;;;;;;;12.20;99.90;12.50;99068.00;;;;334055;29;94505;-93
2023/04/12 00:30:51;;;;;;;;;;;12.20;99.90;12.60;99066.00;;;;333708;29;92080;-93
2023/04/12 00:31:04;;;;;;;;;;;12.20;99.90;12.70;99064.00;;;;333934;29;96947;-93
2023/04/12 00:31:16;;;;;;;;;;;12.20;99.90;12.70;99067.00;;;;332467;29;92018;-93
2023/04/12 00:31:28;;;;;;;;;;;12.20;99.90;12.70;99068.00;;;;332644;29;96209;-93
2023/04/12 00:31:40;;;;;;;;;;;12.20;99.90;12.60;99075.00;;;;336282;28;92130;-93
2023/04/12 00:31:52;;;;;;;;;;;12.20;99.90;12.60;99060.00;;;;331430;29;96229;-93
2023/04/12 00:32:04;;;;;;;;;;;12.20;99.90;12.60;99063.00;;;;333803;29;92048;-93
2023/04/12 00:32:16;;;;;;;;;;;12.20;99.90;12.70;99069.00;;;;335193;28;95626;-93
2023/04/12 00:32:28;;;;;;;;;;;12.20;99.90;12.70;99074.00;;;;332446;29;91159;-92
2023/04/12 00:32:40;;;;;;;;;;;12.20;99.90;12.70;99072.00;;;;332740;29;94547;-93
2023/04/12 00:32:52;;;;;;;;;;;12.20;99.90;12.60;99055.00;;;;332401;29;92889;-92
2023/04/12 00:33:03;;;;;;;;;;;12.20;99.90;12.60;99065.00;;;;335236;29;96830;-93
2023/04/12 00:33:15;;;;;;;;;;;12.20;99.90;12.60;99062.00;;;;332404;29;92032;-92
2023/04/12 00:33:27;;;;;;;;;;;12.20;99.90;12.60;99064.00;;;;331144;29;95131;-93
2023/04/12 00:33:39;;;;;;;;;;;12.20;99.90;12.60;99065.00;;;;332405;29;92084;-93
2023/04/12 00:33:51;;;;;;;;;;;12.20;99.90;12.60;99064.00;;;;332687;29;96153;-93
2023/04/12 00:34:03;;;;;;;;;;;12.20;99.90;12.50;99070.00;;;;335018;29;92115;-93
2023/04/12 00:34:14;;;;;;;;;;;12.20;99.90;12.50;99056.00;;;;333759;29;94616;-92
2023/04/12 00:34:27;;;;;;;;;;;12.20;99.90;12.40;99061.00;;;;331222;29;92056;-93
2023/04/12 00:34:39;;;;;;;;;;;12.20;99.90;12.50;99066.00;;;;333981;29;95895;-93
2023/04/12 00:34:51;;;;;;;;;;;12.20;99.90;12.40;99061.00;;;;332480;29;92067;-93
2023/04/12 00:35:03;;;;;;;;;;;12.20;99.90;12.40;99065.00;;;;332638;29;96591;-93
2023/04/12 00:35:15;;;;;;;;;;;12.20;99.90;12.40;99063.00;;;;334991;29;92506;-93
2023/04/12 00:35:27;;;;;;;;;;;12.20;99.90;12.40;99070.00;;;;334034;29;95984;-93
2023/04/12 00:35:38;;;;;;;;;;;12.20;99.90;12.40;99065.00;;;;331129;29;92055;-93
2023/04/12 00:35:50;;;;;;;;;;;12.10;99.90;12.40;99055.00;;;;334156;29;92158;-93
2023/04/12 00:36:02;;;;;;;;;;;12.20;99.90;12.50;99068.00;;;;331147;29;92054;-93
2023/04/12 00:36:14;;;;;;;;;;;12.20;99.90;12.50;99062.00;;;;334020;29;94912;-93
2023/04/12 00:36:26;;;;;;;;;;;12.20;99.90;12.60;99059.00;;;;332533;29;91340;-93
2023/04/12 00:36:38;;;;;;;;;;;12.20;99.90;12.60;99066.00;;;;334009;29;95710;-93
2023/04/12 00:36:50;;;;;;;;;;;12.20;99.90;12.60;99063.00;;;;333541;29;93101;-92
2023/04/12 00:37:02;;;;;;;;;;;12.20;99.90;12.50;99054.00;;;;331266;29;96074;-92
2023/04/12 00:37:13;;;;;;;;;;;12.20;99.90;12.50;99056.00;;;;332270;29;92187;-92
2023/04/12 00:37:25;;;;;;;;;;;12.20;99.90;12.50;99071.00;;;;332703;29;94847;-93
2023/04/12 00:37:37;;;;;;;;;;;12.20;99.90;12.50;99058.00;;;;332396;29;92287;-93
2023/04/12 00:37:50;;;;;;;;;;;12.20;99.90;12.50;99054.00;;;;334073;29;94321;-93
2023/04/12 00:38:02;;;;;;;;;;;12.20;99.90;12.50;99063.00;;;;331184;29;92063;-93
2023/04/12 00:38:16;;;;;;;;;;;12.10;99.90;12.50;99063.00;;;;331375;29;95774;-93
2023/04/12 00:38:27;;;;;;;;;;;12.20;99.90;12.50;99058.00;;;;333824;29;92027;-93
2023/04/12 00:38:41;;;;;;;;;;;12.20;99.90;12.40;99054.00;;;;335255;29;94690;-93
2023/04/12 00:38:52;;;;;;;;;;;12.10;99.90;12.50;99062.00;;;;331127;29;92952;-92
2023/04/12 00:39:05;;;;;;;;;;;12.10;99.90;12.50;99064.00;;;;333870;29;97287;-91
2023/04/12 00:39:17;;;;;;;;;;;12.10;99.90;12.50;99061.00;;;;334994;29;91227;-92
2023/04/12 00:39:28;;;;;;;;;;;12.10;99.90;12.50;99060.00;;;;332683;29;94833;-92
2023/04/12 00:39:41;;;;;;;;;;;12.10;99.90;12.60;99065.00;;;;333687;29;92139;-92
2023/04/12 00:39:52;;;;;;;;;;;12.10;99.90;12.50;99065.00;;;;334022;29;94699;-92
2023/04/12 00:40:08;;;;;;;;;;;12.20;99.90;12.50;99064.00;;;;335118;29;91164;-93
2023/04/12 00:40:20;;;;;;;;;;;12.10;99.90;12.40;99062.00;;;;332624;29;95220;-93
2023/04/12 00:40:32;;;;;;;;;;;12.10;99.90;12.40;99066.00;;;;331295;29;91188;-93
2023/04/12 00:40:43;;;;;;;;;;;12.10;99.90;12.40;99061.00;;;;333933;29;93642;-93
2023/04/12 00:40:55;;;;;;;;;;;12.10;99.90;12.40;99056.00;;;;332366;29;93054;-93
2023/04/12 00:41:07;;;;;;;;;;;12.10;99.90;12.40;99055.00;;;;334000;29;94416;-93
2023/04/12 00:41:19;;;;;;;;;;;12.10;99.90;12.40;99058.00;;;;332492;29;92095;-92
2023/04/12 00:41:31;;;;;;;;;;;12.10;99.90;12.40;99053.00;;;;332666;29;95640;-92
2023/04/12 00:41:43;;;;;;;;;;;12.10;99.90;12.40;99055.00;;;;333749;29;92099;-92
2023/04/12 00:41:55;;;;;;;;;;;12.10;99.90;12.40;99057.00;;;;332693;29;96012;-93
2023/04/12 00:42:07;;;;;;;;;;;12.10;99.90;12.40;99053.00;;;;333661;29;91992;-92
2023/04/12 00:42:20;;;;;;;;;;;12.10;99.90;12.30;99060.00;;;;334050;29;94873;-92
2023/04/12 00:42:31;;;;;;;;;;;12.10;99.90;12.30;99059.00;;;;333697;29;92049;-92
2023/04/12 00:42:43;;;;;;;;;;;12.10;99.90;12.40;99055.00;;;;333993;29;94492;-93
2023/04/12 00:42:56;;;;;;;;;;;12.10;99.90;12.40;99056.00;;;;332416;29;92940;-92
2023/04/12 00:43:09;;;;;;;;;;;12.10;99.90;12.30;99054.00;;;;336492;28;96983;-92
2023/04/12 00:43:21;;;;;;;;;;;12.10;99.90;12.30;99050.00;;;;335009;29;92147;-93
2023/04/12 00:43:33;;;;;;;;;;;12.10;99.90;12.30;99058.00;;;;332622;29;94826;-92
2023/04/12 00:43:46;;;;;;;;;;;12.10;99.90;12.30;99055.00;;;;332526;29;91204;-92
2023/04/12 00:43:57;;;;;;;;;;;12.10;99.90;12.50;99054.00;;;;335325;29;95416;-92
2023/04/12 00:44:10;;;;;;;;;;;12.10;99.90;12.60;99058.00;;;;331109;29;91319;-93
2023/04/12 00:44:22;;;;;;;;;;;12.10;99.90;12.60;99055.00;;;;334006;29;94679;-92
2023/04/12 00:44:34;;;;;;;;;;;12.10;99.90;12.70;99061.00;;;;333736;29;92033;-92
2023/04/12 00:44:46;;;;;;;;;;;12.10;99.90;12.70;99052.00;;;;333962;29;94976;-92
2023/04/12 00:44:58;;;;;;;;;;;12.10;99.90;12.70;99051.00;;;;333718;29;92182;-92
2023/04/12 00:45:10;;;;;;;;;;;12.10;99.90;12.60;99053.00;;;;334010;29;95458;-93
2023/04/12 00:45:22;;;;;;;;;;;12.10;99.90;12.60;99048.00;;;;333750;29;91973;-92
2023/04/12 00:45:34;;;;;;;;;;;12.10;99.90;12.60;99049.00;;;;333946;29;95974;-92
2023/04/12 00:45:46;;;;;;;;;;;12.10;99.90;12.40;99036.00;;;;332495;29;91373;-93
2023/04/12 00:45:58;;;;;;;;;;;12.10;99.90;12.50;99050.00;;;;332721;29;95759;-92
2023/04/12 00:46:11;;;;;;;;;;;12.10;99.90;12.60;99043.00;;;;333703;29;92087;-92
2023/04/12 00:46:23;;;;;;;;;;;12.10;99.90;12.50;99055.00;;;;332691;29;95009;-93
2023/04/12 00:46:35;;;;;;;;;;;12.10;99.90;12.50;99052.00;;;;333741;29;91985;-93
2023/04/12 00:46:46;;;;;;;;;;;12.10;99.90;12.50;99056.00;;;;332657;29;95737;-92
2023/04/12 00:46:58;;;;;;;;;;;12.10;99.90;12.50;99042.00;;;;333763;29;92185;-92
2023/04/12 00:47:10;;;;;;;;;;;12.10;99.90;12.40;99049.00;;;;333991;29;95677;-92
2023/04/12 00:47:22;;;;;;;;;;;12.10;99.90;12.40;99043.00;;;;332545;29;91128;-92
2023/04/12 00:47:34;;;;;;;;;;;12.10;99.90;12.40;99050.00;;;;333954;29;96004;-93
2023/04/12 00:47:46;;;;;;;;;;;12.10;99.90;12.40;99044.00;;;;333734;29;91299;-93
2023/04/12 00:47:58;;;;;;;;;;;12.10;99.90;12.40;99047.00;;;;332741;29;94891;-92
2023/04/12 00:48:10;;;;;;;;;;;12.10;99.90;12.30;99057.00;;;;333722;29;92007;-93
2023/04/12 00:48:23;;;;;;;;;;;12.10;99.90;12.30;99040.00;;;;332618;29;96200;-93
2023/04/12 00:48:36;;;;;;;;;;;12.10;99.90;12.40;99039.00;;;;333788;29;92014;-93
2023/04/12 00:48:48;;;;;;;;;;;12.10;99.90;12.40;99040.00;;;;332682;29;96289;-92
2023/04/12 00:49:02;;;;;;;;;;;12.10;99.90;12.50;99039.00;;;;333743;29;92146;-93
2023/04/12 00:49:14;;;;;;;;;;;12.10;99.90;12.40;99038.00;;;;333973;29;95059;-92
2023/04/12 00:49:29;;;;;;;;;;;12.10;99.90;12.40;99041.00;;;;332452;29;91215;-92
2023/04/12 00:49:41;;;;;;;;;;;12.10;99.90;12.40;99041.00;;;;333915;29;96142;-92
2023/04/12 00:49:53;;;;;;;;;;;12.10;99.90;12.40;99038.00;;;;333715;29;92044;-92
2023/04/12 00:50:05;;;;;;;;;;;12.10;99.90;12.50;99042.00;;;;332716;29;95821;-93
2023/04/12 00:50:17;;;;;;;;;;;12.10;99.90;12.30;99039.00;;;;333634;29;91313;-92
2023/04/12 00:50:29;;;;;;;;;;;12.10;99.90;12.40;99048.00;;;;333932;29;95501;-93
2023/04/12 00:50:43;;;;;;;;;;;12.10;99.90;12.40;99037.00;;;;335109;29;91240;-92
2023/04/12 00:50:56;;;;;;;;;;;12.10;99.90;12.30;99036.00;;;;332660;29;95483;-93
2023/04/12 00:51:08;;;;;;;;;;;12.10;99.90;12.30;99044.00;;;;332490;29;92061;-92
2023/04/12 00:51:21;;;;;;;;;;;12.00;99.90;12.30;99034.00;;;;333901;29;97054;-93
2023/04/12 00:51:33;;;;;;;;;;;12.00;99.90;12.40;99036.00;;;;333634;29;91192;-92
2023/04/12 00:51:45;;;;;;;;;;;12.00;99.90;12.40;99036.00;;;;333972;29;95926;-93
2023/04/12 00:52:03;;;;;;;;;;;12.00;99.90;12.30;99038.00;;;;333846;29;91169;-93
2023/04/12 00:52:16;;;;;;;;;;;12.00;99.90;12.30;99040.00;;;;336554;28;93511;-93
2023/04/12 00:52:32;;;;;;;;;;;12.00;99.90;12.30;99039.00;;;;335017;29;91230;-92
2023/04/12 00:52:44;;;;;;;;;;;12.00;99.90;12.30;99037.00;;;;332621;29;95954;-92
2023/04/12 00:52:57;;;;;;;;;;;12.00;99.90;12.30;99031.00;;;;333674;29;92039;-92
2023/04/12 00:53:12;;;;;;;;;;;12.00;99.90;12.30;99035.00;;;;335270;29;94881;-92
2023/04/12 00:53:25;;;;;;;;;;;12.00;99.90;12.40;99031.00;;;;333866;29;91967;-92
2023/04/12 00:53:37;;;;;;;;;;;12.00;99.90;12.40;99032.00;;;;333849;29;96779;-92
2023/04/12 00:53:49;;;;;;;;;;;12.00;99.90;12.40;99030.00;;;;333688;29;92097;-93
2023/04/12 00:54:02;;;;;;;;;;;12.00;99.90;12.40;99033.00;;;;334061;29;94665;-92
2023/04/12 00:54:16;;;;;;;;;;;12.00;99.90;12.30;99028.00;;;;331056;29;92083;-92
2023/04/12 00:54:29;;;;;;;;;;;12.00;99.90;12.40;99029.00;;;;334010;29;95876;-93
2023/04/12 00:54:41;;;;;;;;;;;12.00;99.90;12.50;99022.00;;;;333749;29;91970;-92
2023/04/12 00:54:53;;;;;;;;;;;12.00;99.90;12.50;99029.00;;;;332681;29;93699;-93
2023/04/12 00:55:06;;;;;;;;;;;12.00;99.90;12.40;99031.00;;;;335098;29;91942;-92
2023/04/12 00:55:18;;;;;;;;;;;12.00;99.90;12.30;99015.00;;;;332678;29;94892;-93
2023/04/12 00:55:30;;;;;;;;;;;12.00;99.90;12.30;99034.00;;;;332551;29;92001;-93
2023/04/12 00:55:43;;;;;;;;;;;12.00;99.90;12.40;99029.00;;;;333846;29;95172;-92
2023/04/12 00:55:55;;;;;;;;;;;12.00;99.90;12.50;99033.00;;;;332461;29;91208;-93
2023/04/12 00:56:10;;;;;;;;;;;12.00;99.90;12.60;99036.00;;;;332780;29;95061;-93
2023/04/12 00:56:23;;;;;;;;;;;12.00;99.90;12.40;99022.00;;;;332414;29;92048;-93
2023/04/12 00:56:35;;;;;;;;;;;12.00;99.90;12.40;99021.00;;;;335210;29;94745;-92
2023/04/12 00:56:47;;;;;;;;;;;12.00;99.90;12.50;99030.00;;;;334795;29;92060;-93
2023/04/12 00:56:59;;;;;;;;;;;12.00;99.90;12.40;99020.00;;;;333926;29;95938;-92
2023/04/12 00:57:11;;;;;;;;;;;12.00;99.90;12.50;99018.00;;;;333769;29;91967;-93
2023/04/12 00:57:23;;;;;;;;;;;12.00;99.90;12.50;99020.00;;;;335270;29;96045;-93
2023/04/12 00:57:37;;;;;;;;;;;12.00;99.90;12.60;99020.00;;;;332350;29;93009;-93
2023/04/12 00:57:50;;;;;;;;;;;12.10;99.90;12.50;99020.00;;;;333924;29;95857;-93
2023/04/12 00:58:02;;;;;;;;;;;12.10;99.90;12.60;99026.00;;;;332280;29;91260;-93
2023/04/12 00:58:15;;;;;;;;;;;12.10;99.90;12.50;99023.00;;;;332680;29;94961;-92
2023/04/12 00:58:26;;;;;;;;;;;12.10;99.90;12.60;99015.00;;;;335078;29;91156;-93
2023/04/12 00:58:38;;;;;;;;;;;12.10;99.90;12.60;99017.00;;;;333959;29;95890;-93
2023/04/12 00:58:51;;;;;;;;;;;12.10;99.90;12.60;99015.00;;;;332458;29;91962;-92
2023/04/12 00:59:02;;;;;;;;;;;12.10;99.90;12.60;99014.00;;;;332663;29;95990;-93
2023/04/12 00:59:14;;;;;;;;;;;12.10;99.90;12.50;99019.00;;;;332381;29;92057;-92
2023/04/12 00:59:26;;;;;;;;;;;12.10;99.90;12.50;99013.00;;;;333912;29;95818;-93
2023/04/12 00:59:38;;;;;;;;;;;12.10;99.90;12.40;99019.00;;;;333646;29;92134;-93
2023/04/12 00:59:50;;;;;;;;;;;12.10;99.90;12.40;99010.00;;;;332683;29;97010;-93
2023/04/12 01:00:04;;;;;;;;;;;12.10;99.90;12.50;99012.00;;;;332429;29;91911;-93
2023/04/12 01:00:16;;;;;;;;;;;12.10;99.90;12.40;99010.00;;;;332528;29;95860;-93
2023/04/12 01:00:29;;;;;;;;;;;12.10;99.90;12.40;99018.00;;;;332550;29;91871;-92
2023/04/12 01:00:48;;;;;;;;;;;12.10;99.90;12.50;99008.00;;;;332709;29;95952;-93
2023/04/12 01:01:01;;;;;;;;;;;12.10;99.90;12.50;99005.00;;;;332473;29;91365;-92
2023/04/12 01:01:15;;;;;;;;;;;12.10;99.90;12.40;99016.00;;;;333983;29;95997;-93
2023/04/12 01:01:28;;;;;;;;;;;12.10;99.90;12.30;99010.00;;;;332361;29;91295;-92
2023/04/12 01:01:40;;;;;;;;;;;12.10;99.90;12.30;99012.00;;;;333925;29;95755;-93